createdAt,value
2022-08-28T00:00:00.210Z,18.00
2022-08-28T00:02:36.152Z,18.20
2022-08-28T00:05:12.871Z,18.40
2022-08-28T00:07:50.835Z,18.60
2022-08-28T00:10:29.668Z,18.80
2022-08-28T00:13:05.764Z,19.10
2022-08-28T00:15:42.674Z,19.20
2022-08-28T00:18:18.767Z,19.20
2022-08-28T00:20:54.696Z,19.30
2022-08-28T00:23:42.244Z,19.20
2022-08-28T00:26:36.248Z,19.20
2022-08-28T00:29:12.246Z,19.30
2022-08-28T00:31:47.651Z,19.40
2022-08-28T00:34:28.490Z,19.50
2022-08-28T00:37:09.475Z,19.60
2022-08-28T00:39:44.845Z,19.80
2022-08-28T00:42:23.445Z,19.90
2022-08-28T00:44:58.741Z,20.10
2022-08-28T00:47:36.326Z,20.20
2022-08-28T00:50:14.596Z,20.40
2022-08-28T00:52:50.340Z,20.60
2022-08-28T00:55:28.089Z,20.60
2022-08-28T00:58:05.910Z,20.80
2022-08-28T01:00:43.053Z,20.90
2022-08-28T01:03:18.773Z,20.90
2022-08-28T01:05:57.257Z,21.00
2022-08-28T01:08:33.815Z,21.20
2022-08-28T01:11:13.490Z,21.20
2022-08-28T01:13:53.159Z,21.30
2022-08-28T01:22:05.120Z,21.50
2022-08-28T01:37:46.061Z,21.80
2022-08-28T01:40:29.047Z,21.80
2022-08-28T01:51:02.385Z,21.70
2022-08-28T01:53:39.545Z,21.80
2022-08-28T01:56:19.408Z,21.70
2022-08-28T01:58:56.194Z,21.70
2022-08-28T02:01:31.694Z,21.80
2022-08-28T02:04:12.018Z,21.70
2022-08-28T02:06:50.512Z,21.80
2022-08-28T02:09:25.836Z,21.90
2022-08-28T02:12:03.888Z,22.10
2022-08-28T02:14:40.381Z,22.10
2022-08-28T02:48:52.510Z,22.00
2022-08-28T02:54:25.301Z,21.60
2022-08-28T02:57:00.886Z,21.50
2022-08-28T02:59:38.339Z,21.40
2022-08-28T03:02:13.968Z,21.30
2022-08-28T03:04:50.140Z,21.30
2022-08-28T03:07:26.707Z,21.20
2022-08-28T03:10:02.512Z,21.30
2022-08-28T03:12:38.212Z,21.20
2022-08-28T03:15:18.885Z,21.20
2022-08-28T03:17:54.185Z,21.20
2022-08-28T03:23:21.395Z,21.30
2022-08-28T03:25:56.892Z,21.30
2022-08-28T03:28:35.390Z,21.30
2022-08-28T03:31:13.948Z,21.20
2022-08-28T03:33:50.116Z,21.30
2022-08-28T03:36:27.986Z,21.40
2022-08-28T03:39:04.704Z,21.40
2022-08-28T03:41:40.353Z,21.40
2022-08-28T03:44:15.767Z,21.40
2022-08-28T03:46:53.581Z,21.20
2022-08-28T03:49:29.250Z,21.30
2022-08-28T03:52:23.655Z,21.20
2022-08-28T03:54:59.744Z,21.10
2022-08-28T03:57:35.120Z,21.00
2022-08-28T04:00:13.224Z,20.90
2022-08-28T04:02:51.695Z,21.00
2022-08-28T04:05:27.277Z,21.00
2022-08-28T04:08:03.322Z,21.20
2022-08-28T04:10:38.908Z,21.10
2022-08-28T04:13:14.531Z,21.10
2022-08-28T04:15:50.530Z,20.80
2022-08-28T04:18:28.168Z,20.70
2022-08-28T04:21:09.637Z,20.70
2022-08-28T04:23:47.828Z,20.80
2022-08-28T04:26:24.808Z,20.70
2022-08-28T04:29:00.796Z,20.50
2022-08-28T04:31:36.994Z,20.50
2022-08-28T04:34:15.045Z,20.50
2022-08-28T04:36:51.100Z,20.50
2022-08-28T04:39:26.939Z,20.50
2022-08-28T04:42:02.679Z,20.20
2022-08-28T04:44:40.931Z,20.40
2022-08-28T04:47:16.180Z,20.40
2022-08-28T04:49:53.782Z,20.40
2022-08-28T04:52:29.323Z,20.10
2022-08-28T04:55:04.898Z,20.00
2022-08-28T04:57:42.369Z,19.90
2022-08-28T05:00:18.523Z,19.90
2022-08-28T05:02:54.195Z,19.70
2022-08-28T05:05:34.477Z,19.50
2022-08-28T05:08:10.280Z,19.50
2022-08-28T05:10:46.389Z,19.40
2022-08-28T05:13:22.523Z,19.40
2022-08-28T05:15:58.602Z,19.40
2022-08-28T05:18:34.326Z,19.40
2022-08-28T05:21:17.495Z,19.30
2022-08-28T05:23:54.589Z,19.40
2022-08-28T05:26:30.328Z,19.40
2022-08-28T05:29:05.946Z,19.30
2022-08-28T05:31:42.040Z,19.30
2022-08-28T05:34:18.293Z,19.30
2022-08-28T05:36:55.557Z,19.20
2022-08-28T05:39:31.395Z,19.20
2022-08-28T05:42:07.321Z,19.10
2022-08-28T05:44:43.420Z,19.10
2022-08-28T05:47:21.614Z,18.90
2022-08-28T05:52:36.562Z,18.90
2022-08-28T05:55:13.675Z,19.00
2022-08-28T05:57:50.099Z,19.00
2022-08-28T06:00:25.764Z,18.90
2022-08-28T06:03:04.352Z,18.90
2022-08-28T06:05:39.817Z,19.00
2022-08-28T06:16:06.589Z,19.10
2022-08-28T06:24:01.348Z,19.00
2022-08-28T07:03:00.490Z,18.70
2022-08-28T07:05:36.414Z,18.60
2022-08-28T07:08:12.082Z,18.50
2022-08-28T07:10:49.397Z,18.50
2022-08-28T07:13:24.771Z,18.40
2022-08-28T07:16:00.615Z,18.50
2022-08-28T07:18:35.984Z,18.40
2022-08-28T07:21:12.568Z,18.30
2022-08-28T07:26:32.671Z,18.50
2022-08-28T07:29:11.587Z,18.50
2022-08-28T07:31:49.441Z,18.50
2022-08-28T07:34:26.887Z,18.50
2022-08-28T07:45:13.762Z,18.50
2022-08-28T08:00:50.919Z,18.50
2022-08-28T08:03:27.259Z,18.50
2022-08-28T08:06:05.079Z,18.50
2022-08-28T08:13:54.953Z,18.40
2022-08-28T08:16:31.025Z,18.40
2022-08-28T08:19:07.270Z,18.40
2022-08-28T08:21:43.047Z,18.40
2022-08-28T08:24:22.564Z,18.40
2022-08-28T08:27:00.624Z,18.40
2022-08-28T08:29:41.002Z,18.40
2022-08-28T08:32:16.963Z,18.40
2022-08-28T08:34:52.567Z,18.40
2022-08-28T08:37:28.104Z,18.30
2022-08-28T08:40:06.454Z,18.30
2022-08-28T08:42:44.383Z,18.30
2022-08-28T08:45:28.212Z,18.30
2022-08-28T08:48:04.939Z,18.30
2022-08-28T08:50:41.582Z,18.30
2022-08-28T08:53:31.886Z,18.30
2022-08-28T08:56:12.156Z,18.40
2022-08-28T09:06:56.201Z,18.40
2022-08-28T09:09:35.319Z,18.50
2022-08-28T09:12:13.066Z,18.40
2022-08-28T09:14:54.446Z,18.40
2022-08-28T09:17:36.408Z,18.30
2022-08-28T09:20:14.016Z,18.30
2022-08-28T09:22:51.334Z,18.30
2022-08-28T09:25:55.733Z,18.30
2022-08-28T09:28:33.595Z,18.30
2022-08-28T09:31:11.530Z,18.20
2022-08-28T09:33:51.432Z,18.30
2022-08-28T09:36:37.596Z,18.30
2022-08-28T09:39:18.658Z,18.30
2022-08-28T09:42:35.160Z,18.20
2022-08-28T09:45:20.379Z,18.30
2022-08-28T09:47:58.653Z,18.30
2022-08-28T10:23:07.540Z,18.30
2022-08-28T10:26:04.238Z,18.20
2022-08-28T10:28:59.366Z,18.20
2022-08-28T10:31:40.243Z,18.20
2022-08-28T10:34:33.087Z,18.30
2022-08-28T10:37:14.252Z,18.20
2022-08-28T10:39:56.382Z,18.20
2022-08-28T10:42:36.326Z,18.20
2022-08-28T10:45:24.324Z,18.20
2022-08-28T10:48:04.284Z,18.20
2022-08-28T10:50:47.516Z,18.20
2022-08-28T10:53:27.324Z,18.20
2022-08-28T10:56:07.730Z,18.20
2022-08-28T10:58:44.958Z,18.20
2022-08-28T11:01:28.583Z,18.10
2022-08-28T11:04:06.895Z,18.10
2022-08-28T11:06:47.394Z,18.10
2022-08-28T11:09:33.410Z,18.10
2022-08-28T11:12:14.022Z,18.10
2022-08-28T11:14:51.168Z,18.10
2022-08-28T11:17:44.651Z,18.10
2022-08-28T11:20:24.485Z,18.10
2022-08-28T11:28:24.312Z,18.10
2022-08-28T11:31:31.219Z,18.10
2022-08-28T11:34:07.351Z,18.10
2022-08-28T11:37:06.971Z,18.10
2022-08-28T11:39:42.497Z,18.10
2022-08-28T11:42:40.603Z,18.00
2022-08-28T11:45:47.529Z,18.10
2022-08-28T11:48:52.037Z,18.10
2022-08-28T11:52:00.283Z,18.10
2022-08-28T11:54:51.017Z,18.00
2022-08-28T12:03:14.946Z,18.00
2022-08-28T12:05:53.523Z,18.00
2022-08-28T12:09:13.522Z,18.00
2022-08-28T12:12:06.286Z,17.90
2022-08-28T12:15:14.282Z,18.00
2022-08-28T12:17:58.622Z,17.90
2022-08-28T12:26:28.926Z,17.80
2022-08-28T12:29:07.038Z,17.90
2022-08-28T12:32:26.396Z,17.90
2022-08-28T12:35:21.492Z,17.90
2022-08-28T12:38:07.567Z,17.90
2022-08-28T12:40:55.499Z,17.90
2022-08-28T12:43:41.686Z,17.90
2022-08-28T12:46:28.131Z,17.90
2022-08-28T12:49:05.265Z,17.90
2022-08-28T12:51:42.742Z,17.80
2022-08-28T12:54:22.825Z,17.80
2022-08-28T12:57:11.980Z,17.80
2022-08-28T12:59:48.888Z,17.80
2022-08-28T13:02:30.735Z,17.80
2022-08-28T13:05:09.612Z,17.80
2022-08-28T13:07:50.358Z,17.80
2022-08-28T13:10:28.766Z,17.80
2022-08-28T13:13:08.605Z,17.70
2022-08-28T13:15:57.634Z,17.80
2022-08-28T13:18:56.430Z,17.80
2022-08-28T13:21:38.070Z,17.70
2022-08-28T13:24:32.252Z,17.70
2022-08-28T13:27:13.807Z,17.70
2022-08-28T13:30:03.155Z,17.70
2022-08-28T13:32:44.517Z,17.60
2022-08-28T13:35:38.176Z,17.60
2022-08-28T13:38:15.483Z,17.60
2022-08-28T13:40:59.417Z,17.60
2022-08-28T13:43:46.615Z,17.60
2022-08-28T13:46:24.270Z,17.60
2022-08-28T13:48:59.745Z,17.50
2022-08-28T13:51:35.295Z,17.50
2022-08-28T13:54:17.920Z,17.50
2022-08-28T13:56:55.362Z,17.50
2022-08-28T13:59:53.568Z,17.50
2022-08-28T14:02:52.080Z,17.50
2022-08-28T14:05:29.826Z,17.50
2022-08-28T14:08:05.508Z,17.40
2022-08-28T14:10:41.376Z,17.40
2022-08-28T14:13:20.495Z,17.40
2022-08-28T14:15:56.151Z,17.40
2022-08-28T14:18:35.855Z,17.20
2022-08-28T14:21:12.115Z,17.40
2022-08-28T14:23:47.575Z,17.40
2022-08-28T14:26:23.451Z,17.40
2022-08-28T14:28:58.937Z,17.30
2022-08-28T14:31:38.779Z,17.30
2022-08-28T14:34:17.956Z,17.20
2022-08-28T14:36:56.873Z,17.20
2022-08-28T14:39:33.048Z,17.20
2022-08-28T14:42:13.047Z,17.20
2022-08-28T14:44:48.907Z,17.20
2022-08-28T14:47:27.761Z,17.20
2022-08-28T14:50:05.253Z,17.20
2022-08-28T14:52:42.147Z,17.20
2022-08-28T14:55:18.809Z,17.20
2022-08-28T14:57:54.280Z,17.20
2022-08-28T15:00:30.390Z,17.20
2022-08-28T15:03:06.141Z,17.20
2022-08-28T15:05:44.437Z,17.20
2022-08-28T15:08:21.664Z,17.20
2022-08-28T15:10:57.130Z,17.10
2022-08-28T15:13:32.735Z,17.10
2022-08-28T15:16:15.692Z,17.20
2022-08-28T15:18:52.350Z,17.10
2022-08-28T15:21:32.106Z,17.20
2022-08-28T15:24:09.577Z,17.10
2022-08-28T15:26:45.342Z,17.10
2022-08-28T15:29:21.220Z,17.10
2022-08-28T15:31:57.922Z,17.10
2022-08-28T15:34:34.082Z,17.10
2022-08-28T15:37:14.361Z,17.10
2022-08-28T15:40:05.589Z,17.10
2022-08-28T15:42:41.185Z,17.00
2022-08-28T15:45:17.592Z,17.00
2022-08-28T15:47:53.839Z,17.00
2022-08-28T15:50:29.294Z,17.00
2022-08-28T15:53:07.094Z,17.00
2022-08-28T15:55:43.052Z,17.00
2022-08-28T15:58:19.111Z,17.00
2022-08-28T16:00:55.788Z,16.90
2022-08-28T16:03:31.535Z,16.90
2022-08-28T16:06:07.985Z,16.90
2022-08-28T16:08:45.973Z,16.90
2022-08-28T16:11:24.718Z,16.80
2022-08-28T16:14:00.254Z,16.80
2022-08-28T16:16:35.856Z,16.80
2022-08-28T16:19:12.430Z,16.70
2022-08-28T16:21:48.086Z,16.70
2022-08-28T16:24:25.540Z,16.70
2022-08-28T16:27:01.029Z,16.60
2022-08-28T16:29:36.579Z,16.60
2022-08-28T16:32:12.495Z,16.60
2022-08-28T16:34:48.466Z,16.60
2022-08-28T16:37:24.365Z,16.50
2022-08-28T16:40:03.146Z,16.50
2022-08-28T16:42:41.573Z,16.50
2022-08-28T16:45:23.794Z,16.50
2022-08-28T16:47:59.157Z,16.50
2022-08-28T16:50:34.890Z,16.50
2022-08-28T16:53:10.448Z,16.50
2022-08-28T16:55:48.846Z,16.40
2022-08-28T16:58:24.869Z,16.40
2022-08-28T17:01:19.265Z,16.40
2022-08-28T17:03:58.217Z,16.40
2022-08-28T17:06:37.593Z,16.40
2022-08-28T17:09:13.346Z,16.30
2022-08-28T17:11:52.368Z,16.30
2022-08-28T17:14:28.445Z,16.30
2022-08-28T17:17:04.289Z,16.30
2022-08-28T17:19:39.863Z,16.30
2022-08-28T17:22:31.067Z,16.30
2022-08-28T17:25:09.227Z,16.30
2022-08-28T17:27:47.019Z,16.30
2022-08-28T17:30:22.996Z,16.30
2022-08-28T17:32:59.368Z,16.30
2022-08-28T17:35:41.799Z,16.30
2022-08-28T17:38:18.470Z,16.20
2022-08-28T17:40:54.983Z,16.20
2022-08-28T17:43:32.325Z,16.10
2022-08-28T17:46:07.908Z,16.10
2022-08-28T19:50:26.729Z,15.70
2022-08-28T20:06:05.505Z,15.50
2022-08-28T20:08:41.313Z,15.50
2022-08-28T20:11:30.402Z,15.40
2022-08-28T20:14:08.870Z,15.50
2022-08-28T20:16:46.143Z,15.50
2022-08-28T20:19:22.622Z,15.60
2022-08-28T20:22:00.365Z,15.60
2022-08-28T20:24:36.039Z,15.70
2022-08-28T20:27:11.866Z,15.70
2022-08-28T20:29:47.725Z,15.70
2022-08-28T20:32:23.098Z,15.70
2022-08-28T20:34:58.882Z,15.70
2022-08-28T20:37:44.758Z,15.70
2022-08-28T20:40:24.612Z,15.70
2022-08-28T20:43:00.480Z,15.70
2022-08-28T20:45:36.204Z,16.00
2022-08-28T20:48:12.086Z,15.90
2022-08-28T20:50:47.381Z,16.00
2022-08-28T20:53:37.250Z,16.00
2022-08-28T20:56:14.517Z,16.00
2022-08-28T20:58:50.310Z,16.00
2022-08-28T21:01:26.172Z,16.10
2022-08-28T21:04:02.118Z,16.10
2022-08-28T21:06:38.273Z,16.20
2022-08-28T21:09:15.555Z,16.30
2022-08-28T21:11:51.406Z,16.30
2022-08-28T21:32:44.899Z,17.20
2022-08-28T21:35:20.949Z,17.50
2022-08-28T21:37:56.274Z,17.60
2022-08-28T21:40:34.003Z,17.80
2022-08-28T21:43:09.465Z,17.90
2022-08-28T21:45:45.576Z,17.90
2022-08-28T21:48:21.640Z,17.90
2022-08-28T21:51:00.075Z,18.00
2022-08-28T21:56:15.316Z,18.20
2022-08-28T21:58:51.520Z,18.40
2022-08-28T22:04:04.548Z,18.60
2022-08-28T22:06:41.817Z,18.70
2022-08-28T22:09:17.124Z,18.80
2022-08-28T22:11:57.506Z,18.80
2022-08-28T22:14:33.082Z,18.80
2022-08-28T22:17:11.835Z,18.70
2022-08-28T22:19:47.898Z,18.70
2022-08-28T22:22:39.268Z,18.70
2022-08-28T22:25:14.869Z,18.60
2022-08-28T22:27:55.378Z,18.50
2022-08-28T22:30:31.102Z,18.40
2022-08-28T22:33:07.413Z,18.30
2022-08-28T22:35:50.211Z,18.30
2022-08-28T22:38:26.823Z,18.30
2022-08-28T22:41:02.502Z,18.20
2022-08-28T22:43:41.351Z,18.20
2022-08-28T22:46:16.811Z,18.30
2022-08-28T22:48:52.812Z,18.40
2022-08-28T22:51:31.775Z,18.40
2022-08-28T22:54:07.336Z,18.50
2022-08-28T22:56:44.296Z,18.70
2022-08-28T22:59:21.843Z,18.80
2022-08-28T23:01:57.596Z,18.90
2022-08-28T23:04:33.620Z,19.00
2022-08-28T23:07:09.430Z,19.00
2022-08-28T23:09:49.083Z,19.10
2022-08-28T23:12:24.451Z,19.10
2022-08-28T23:15:01.795Z,19.10
2022-08-28T23:17:38.177Z,19.10
2022-08-28T23:20:19.011Z,19.30
2022-08-28T23:22:58.207Z,19.30
2022-08-28T23:25:33.891Z,19.40
2022-08-28T23:28:10.237Z,19.40
2022-08-28T23:30:49.522Z,19.50
2022-08-28T23:33:25.487Z,19.60
2022-08-28T23:36:01.567Z,19.70
2022-08-28T23:38:42.876Z,19.80
2022-08-28T23:41:19.466Z,19.70
2022-08-28T23:43:56.343Z,19.80
2022-08-28T23:46:34.306Z,19.90
2022-08-28T23:49:09.839Z,20.00
2022-08-28T23:51:45.953Z,19.90
2022-08-28T23:54:22.176Z,20.10
2022-08-28T23:56:57.737Z,20.00
2022-08-28T23:59:33.375Z,20.00
